createdAt,value
2022-12-25T00:02:14.372Z,5.25
2022-12-25T00:07:17.553Z,5.20
2022-12-25T00:12:22.476Z,5.20
2022-12-25T00:17:25.633Z,5.28
2022-12-25T00:22:30.083Z,5.37
2022-12-25T00:27:38.020Z,5.38
2022-12-25T00:32:42.311Z,5.26
2022-12-25T00:37:45.550Z,5.20
2022-12-25T00:42:49.892Z,5.22
2022-12-25T00:47:53.684Z,5.33
2022-12-25T00:52:56.844Z,5.41
2022-12-25T00:58:00.016Z,5.42
2022-12-25T01:03:03.296Z,5.37
2022-12-25T01:08:07.127Z,5.33
2022-12-25T01:13:10.343Z,5.33
2022-12-25T01:18:13.635Z,5.40
2022-12-25T01:23:17.312Z,5.46
2022-12-25T01:28:20.446Z,5.46
2022-12-25T01:33:23.577Z,5.38
2022-12-25T01:38:26.824Z,5.35
2022-12-25T01:43:32.660Z,5.40
2022-12-25T01:48:38.559Z,5.43
2022-12-25T01:53:41.805Z,5.43
2022-12-25T01:58:45.032Z,5.43
2022-12-25T02:03:48.373Z,5.37
2022-12-25T02:08:51.818Z,5.30
2022-12-25T02:13:55.124Z,5.27
2022-12-25T02:19:20.052Z,5.27
2022-12-25T02:24:55.328Z,5.29
2022-12-25T02:30:04.876Z,5.22
2022-12-25T02:35:15.656Z,5.23
2022-12-25T02:40:26.168Z,5.26
2022-12-25T02:45:57.002Z,5.31
2022-12-25T02:51:33.737Z,5.31
2022-12-25T02:56:58.703Z,5.30
2022-12-25T03:02:22.584Z,5.32
2022-12-25T03:07:27.692Z,5.44
2022-12-25T03:12:53.912Z,5.46
2022-12-25T03:18:03.330Z,5.41
2022-12-25T03:23:26.667Z,5.43
2022-12-25T03:28:29.781Z,5.45
2022-12-25T03:34:06.644Z,5.46
2022-12-25T03:40:00.021Z,5.45
2022-12-25T03:45:33.519Z,5.41
2022-12-25T03:50:57.986Z,5.38
2022-12-25T03:56:20.785Z,5.42
2022-12-25T04:01:42.777Z,5.52
2022-12-25T04:07:17.026Z,5.60
2022-12-25T04:12:38.987Z,5.60
2022-12-25T04:18:00.824Z,5.57
2022-12-25T04:23:22.727Z,5.49
2022-12-25T04:28:44.474Z,5.51
2022-12-25T04:34:06.178Z,5.53
2022-12-25T04:39:10.290Z,5.49
2022-12-25T04:44:13.640Z,5.43
2022-12-25T04:49:16.713Z,5.40
2022-12-25T04:54:19.875Z,5.45
2022-12-25T04:59:23.151Z,5.52
2022-12-25T05:04:26.296Z,5.58
2022-12-25T05:09:29.584Z,5.62
2022-12-25T05:14:32.722Z,5.61
2022-12-25T05:19:35.801Z,5.60
2022-12-25T05:24:39.024Z,5.62
2022-12-25T05:29:42.219Z,5.69
2022-12-25T05:34:51.025Z,5.68
2022-12-25T05:39:54.160Z,5.61
2022-12-25T05:44:57.357Z,5.61
2022-12-25T05:50:00.520Z,5.65
2022-12-25T05:55:03.985Z,5.68
2022-12-25T06:00:07.885Z,5.70
2022-12-25T06:05:15.731Z,5.68
2022-12-25T06:10:18.970Z,5.72
2022-12-25T06:15:28.000Z,5.86
2022-12-25T06:20:46.157Z,5.85
2022-12-25T06:25:49.281Z,5.76
2022-12-25T06:30:52.429Z,5.69
2022-12-25T06:35:55.554Z,5.61
2022-12-25T06:41:07.470Z,5.61
2022-12-25T06:46:13.545Z,5.66
2022-12-25T06:51:22.332Z,5.76
2022-12-25T06:56:28.454Z,5.77
2022-12-25T07:01:45.879Z,5.72
2022-12-25T07:07:11.015Z,5.72
2022-12-25T07:12:26.342Z,5.72
2022-12-25T07:17:41.701Z,5.83
2022-12-25T07:29:00.941Z,5.85
2022-12-25T07:34:43.835Z,5.78
2022-12-25T07:40:01.779Z,5.72
2022-12-25T07:45:13.683Z,5.74
2022-12-25T07:50:17.432Z,5.87
2022-12-25T07:55:20.570Z,5.89
2022-12-25T08:00:29.672Z,5.89
2022-12-25T08:05:45.953Z,5.88
2022-12-25T08:10:49.201Z,5.90
2022-12-25T08:16:01.108Z,5.98
2022-12-25T08:21:10.377Z,6.03
2022-12-25T08:26:22.273Z,6.02
2022-12-25T08:31:46.718Z,5.99
2022-12-25T08:37:01.704Z,6.01
2022-12-25T08:42:32.346Z,6.02
2022-12-25T08:48:28.828Z,6.03
2022-12-25T09:00:07.326Z,6.03
2022-12-25T09:05:22.253Z,6.11
2022-12-25T09:10:49.865Z,6.16
2022-12-25T09:16:08.066Z,6.15
2022-12-25T09:21:23.428Z,6.11
2022-12-25T09:26:38.906Z,6.04
2022-12-25T09:32:02.913Z,6.07
2022-12-25T09:37:24.190Z,6.11
2022-12-25T09:42:48.718Z,6.13
2022-12-25T09:48:16.362Z,6.15
2022-12-25T10:12:17.027Z,6.26
2022-12-25T10:18:32.002Z,6.26
2022-12-25T10:24:06.033Z,6.26
2022-12-25T10:29:19.714Z,6.33
2022-12-25T10:34:59.371Z,6.44
2022-12-25T10:40:02.581Z,6.53
2022-12-25T10:45:09.306Z,6.51
2022-12-25T10:50:20.851Z,6.42
2022-12-25T10:55:28.689Z,6.36
2022-12-25T11:00:33.472Z,6.39
2022-12-25T11:05:37.037Z,6.34
2022-12-25T11:10:44.614Z,6.28
2022-12-25T11:15:49.467Z,6.30
2022-12-25T11:21:13.967Z,6.37
2022-12-25T11:26:18.674Z,6.35
2022-12-25T11:31:38.001Z,6.33
2022-12-25T11:36:52.466Z,6.32
2022-12-25T11:42:22.262Z,6.41
2022-12-25T11:47:33.895Z,6.57
2022-12-25T11:52:39.041Z,6.62
2022-12-25T11:57:45.587Z,6.62
2022-12-25T12:03:07.094Z,6.62
2022-12-25T12:08:11.577Z,6.61
2022-12-25T12:13:23.675Z,6.73
2022-12-25T12:24:20.600Z,6.91
2022-12-25T12:29:28.306Z,6.90
2022-12-25T12:34:44.058Z,6.88
2022-12-25T12:39:54.160Z,6.90
2022-12-25T12:45:08.475Z,6.93
2022-12-25T12:50:27.340Z,6.91
2022-12-25T12:55:34.377Z,6.85
2022-12-25T13:00:46.717Z,6.80
2022-12-25T13:06:10.341Z,6.85
2022-12-25T13:11:24.968Z,6.87
2022-12-25T13:16:34.123Z,6.77
2022-12-25T13:21:37.385Z,6.69
2022-12-25T13:26:40.780Z,6.71
2022-12-25T13:31:44.254Z,6.73
2022-12-25T13:36:48.915Z,6.81
2022-12-25T13:42:06.053Z,6.87
2022-12-25T13:47:21.943Z,6.86
2022-12-25T13:52:35.876Z,6.87
2022-12-25T13:58:01.329Z,6.94
2022-12-25T14:03:18.690Z,6.97
2022-12-25T14:08:25.954Z,6.92
2022-12-25T14:13:30.904Z,6.87
2022-12-25T14:18:34.734Z,6.83
2022-12-25T14:23:47.736Z,6.86
2022-12-25T14:29:17.673Z,6.88
2022-12-25T14:34:24.665Z,6.81
2022-12-25T14:39:28.633Z,6.71
2022-12-25T14:44:39.916Z,6.64
2022-12-25T14:49:43.452Z,6.65
2022-12-25T14:54:50.269Z,6.70
2022-12-25T14:59:59.219Z,6.64
2022-12-25T15:05:02.594Z,6.56
2022-12-25T15:10:57.616Z,6.51
2022-12-25T15:15:35.332Z,6.51
2022-12-25T15:20:38.790Z,6.54
2022-12-25T15:25:42.758Z,6.56
2022-12-25T15:30:46.573Z,6.50
2022-12-25T15:35:50.001Z,6.44
2022-12-25T15:40:53.305Z,6.41
2022-12-25T15:45:56.522Z,6.42
2022-12-25T15:50:59.779Z,6.51
2022-12-25T15:56:03.008Z,6.54
2022-12-25T16:01:06.248Z,6.49
2022-12-25T16:06:14.164Z,6.43
2022-12-25T16:11:23.469Z,6.42
2022-12-25T16:16:26.827Z,6.43
2022-12-25T16:21:46.424Z,6.43
2022-12-25T16:26:49.782Z,6.43
2022-12-25T16:31:52.950Z,6.53
2022-12-25T16:36:56.730Z,6.64
2022-12-25T16:41:59.982Z,6.66
2022-12-25T16:47:03.405Z,6.68
2022-12-25T16:52:06.561Z,6.68
2022-12-25T16:57:09.805Z,6.71
2022-12-25T17:02:18.757Z,6.64
2022-12-25T17:07:22.183Z,6.53
2022-12-25T17:12:25.493Z,6.49
2022-12-25T17:17:29.086Z,6.47
2022-12-25T17:22:32.317Z,6.52
2022-12-25T17:27:35.572Z,6.57
2022-12-25T17:32:38.699Z,6.55
2022-12-25T17:37:42.340Z,6.49
2022-12-25T17:42:45.514Z,6.43
2022-12-25T17:47:48.895Z,6.36
2022-12-25T17:52:53.102Z,6.36
2022-12-25T17:57:56.272Z,6.38
2022-12-25T18:03:05.731Z,6.30
2022-12-25T18:08:12.979Z,6.17
2022-12-25T18:13:16.192Z,6.14
2022-12-25T18:18:19.384Z,6.18
2022-12-25T18:23:23.349Z,6.25
2022-12-25T18:28:26.483Z,6.25
2022-12-25T18:33:29.650Z,6.25
2022-12-25T18:38:33.239Z,6.18
2022-12-25T18:43:52.988Z,6.10
2022-12-25T18:48:58.404Z,6.05
2022-12-25T18:54:01.778Z,6.01
2022-12-25T18:59:05.113Z,6.04
2022-12-25T19:04:12.818Z,5.99
2022-12-25T19:09:16.005Z,5.94
2022-12-25T19:14:19.410Z,5.93
2022-12-25T19:19:23.377Z,5.90
2022-12-25T19:24:26.679Z,5.92
2022-12-25T19:29:30.485Z,5.87
2022-12-25T19:34:33.721Z,5.83
2022-12-25T19:39:37.075Z,5.81
2022-12-25T19:44:40.342Z,5.83
2022-12-25T19:49:44.010Z,5.84
2022-12-25T19:54:52.551Z,5.82
2022-12-25T19:59:55.733Z,5.75
2022-12-25T20:04:58.853Z,5.71
2022-12-25T20:10:04.006Z,5.72
2022-12-25T20:15:07.928Z,5.72
2022-12-25T20:20:11.594Z,5.74
2022-12-25T20:25:14.936Z,5.73
2022-12-25T20:30:18.193Z,5.70
2022-12-25T20:35:21.350Z,5.68
2022-12-25T20:40:24.616Z,5.61
2022-12-25T20:45:27.835Z,5.53
2022-12-25T20:50:30.971Z,5.49
2022-12-25T20:55:34.539Z,5.49
2022-12-25T21:00:42.709Z,5.51
2022-12-25T21:05:56.659Z,5.51
2022-12-25T21:11:01.121Z,5.42
2022-12-25T21:16:06.635Z,5.35
2022-12-25T21:21:10.499Z,5.28
2022-12-25T21:26:19.156Z,5.24
2022-12-25T21:31:22.575Z,5.22
2022-12-25T21:36:29.506Z,5.21
2022-12-25T21:41:34.992Z,5.20
2022-12-25T21:46:38.189Z,5.20
2022-12-25T21:51:59.812Z,5.26
2022-12-25T21:57:03.396Z,5.31
2022-12-25T22:02:11.805Z,5.30
2022-12-25T22:07:18.294Z,5.23
2022-12-25T22:12:40.894Z,5.16
2022-12-25T22:18:02.792Z,5.17
2022-12-25T22:23:06.068Z,5.21
2022-12-25T22:28:09.404Z,5.24
2022-12-25T22:33:13.545Z,5.17
2022-12-25T22:38:16.726Z,5.16
2022-12-25T22:43:19.942Z,5.18
2022-12-25T22:48:23.110Z,5.23
2022-12-25T22:53:26.305Z,5.25
2022-12-25T22:58:29.413Z,5.18
2022-12-25T23:03:32.641Z,5.13
2022-12-25T23:08:35.914Z,5.11
2022-12-25T23:13:57.794Z,5.16
2022-12-25T23:19:20.152Z,5.15
2022-12-25T23:24:42.156Z,5.08
2022-12-25T23:29:45.384Z,5.00
2022-12-25T23:34:49.520Z,4.97
2022-12-25T23:39:52.740Z,4.98
2022-12-25T23:44:55.943Z,5.06
2022-12-25T23:49:59.067Z,5.07
2022-12-25T23:55:02.242Z,5.02
